Time;durP1;ratioP1;P1;durP2;ratioP2;P2;SDS_P1;SDS_P2;PMS_P1;PMS_P2;Temp;Humidity;BMP_temperature;BMP_pressure;BME280_temperature;BME280_humidity;BME280_pressure;Samples;Min_cycle;Max_cycle;Signal;HPM_P1;HPM_P2
2023/04/08 00:02:20;;;;;;;;;;;;;;;4.73;84.32;102463.00;5003884;28;19986;-73
2023/04/08 00:04:45;;;;;;;;;;;;;;;4.70;84.41;102468.69;5000292;28;20042;-72
2023/04/08 00:07:11;;;;;;;;;;;;;;;4.63;84.46;102466.78;4982990;28;20722;-73
2023/04/08 00:09:37;;;;;;;;;;;;;;;4.72;84.46;102472.81;4981466;28;19951;-70
2023/04/08 00:12:03;;;;;;;;;;;;;;;4.64;84.85;102473.75;4979730;28;20437;-69
2023/04/08 00:14:28;;;;;;;;;;;;;;;4.78;83.94;102479.19;4998632;28;20318;-71
2023/04/08 00:16:54;;;;;;;;;;;;;;;4.72;84.91;102477.28;4982247;28;20011;-70
2023/04/08 00:19:19;;;;;;;;;;;;;;;4.74;84.84;102475.25;4997216;28;19940;-73
2023/04/08 00:21:46;;;;;;;;;;;;;;;4.77;84.29;102482.88;5002492;28;19963;-71
2023/04/08 00:24:11;;;;;;;;;;;;;;;4.77;84.59;102474.91;5015283;28;19968;-71
2023/04/08 00:26:37;;;;;;;;;;;;;;;4.77;84.31;102481.03;5000472;28;19935;-72
2023/04/08 00:29:03;;;;;;;;;;;;;;;4.80;84.30;102479.81;4995296;28;19947;-72
2023/04/08 00:31:28;;;;;;;;;;;;;;;4.77;84.70;102480.22;4996979;28;19941;-72
2023/04/08 00:33:54;;;;;;;;;;;;;;;4.65;84.92;102470.06;4997752;28;19979;-70
2023/04/08 00:36:19;;;;;;;;;;;;;;;4.72;84.77;102474.63;4983121;28;20029;-70
2023/04/08 00:38:45;;;;;;;;;;;;;;;4.66;84.89;102478.84;5003424;28;19957;-70
2023/04/08 00:41:10;;;;;;;;;;;;;;;4.75;85.14;102482.25;4989749;28;19935;-70
2023/04/08 00:43:36;;;;;;;;;;;;;;;4.73;84.88;102476.28;4999488;28;19964;-72
2023/04/08 00:46:02;;;;;;;;;;;;;;;4.80;85.06;102477.16;4972616;28;19936;-70
2023/04/08 00:48:28;;;;;;;;;;;;;;;4.81;84.46;102478.81;5006623;28;19948;-71
2023/04/08 00:50:54;;;;;;;;;;;;;;;4.73;84.88;102485.06;4987388;28;19939;-72
2023/04/08 00:53:19;;;;;;;;;;;;;;;4.73;84.62;102481.59;4999250;28;19960;-72
2023/04/08 00:55:45;;;;;;;;;;;;;;;4.81;84.71;102489.41;4989678;28;19947;-73
2023/04/08 00:58:11;;;;;;;;;;;;;;;4.75;84.92;102487.53;5015610;28;19980;-72
2023/04/08 01:00:41;;;;;;;;;;;;;;;4.82;85.07;102481.28;5015043;28;20066;-72
2023/04/08 01:03:15;;;;;;;;;;;;;;;4.82;84.40;102483.13;5014894;28;20005;-69
2023/04/08 01:05:55;;;;;;;;;;;;;;;4.83;84.32;102484.75;5003705;28;19945;-73
2023/04/08 01:08:24;;;;;;;;;;;;;;;4.97;83.48;102481.22;4986043;28;20419;-71
2023/04/08 01:10:53;;;;;;;;;;;;;;;4.93;83.68;102485.25;4998330;28;19941;-70
2023/04/08 01:13:22;;;;;;;;;;;;;;;4.97;83.36;102481.22;4986802;28;19963;-70
2023/04/08 01:15:49;;;;;;;;;;;;;;;4.88;84.00;102477.06;4993809;28;20850;-70
2023/04/08 01:18:15;;;;;;;;;;;;;;;4.82;84.12;102475.97;4995971;28;19940;-71
2023/04/08 01:20:41;;;;;;;;;;;;;;;5.04;83.06;102490.06;4984665;28;19940;-70
2023/04/08 01:23:15;;;;;;;;;;;;;;;4.88;83.73;102485.84;4985354;28;20495;-72
2023/04/08 01:25:51;;;;;;;;;;;;;;;4.97;83.16;102488.38;4965637;28;20327;-72
2023/04/08 01:28:20;;;;;;;;;;;;;;;4.89;83.68;102484.84;4998700;28;19935;-73
2023/04/08 01:30:46;;;;;;;;;;;;;;;4.87;83.58;102475.41;5002870;28;20077;-72
2023/04/08 01:33:13;;;;;;;;;;;;;;;4.92;83.63;102473.81;4988620;28;20059;-70
2023/04/08 01:35:41;;;;;;;;;;;;;;;4.98;83.28;102480.22;4988928;28;19960;-73
2023/04/08 01:38:08;;;;;;;;;;;;;;;4.91;83.68;102472.19;4989414;28;20260;-71
2023/04/08 01:40:34;;;;;;;;;;;;;;;4.86;83.95;102471.91;4968487;28;20045;-71
2023/04/08 01:43:04;;;;;;;;;;;;;;;4.89;83.91;102473.41;4967594;28;19963;-71
2023/04/08 01:45:30;;;;;;;;;;;;;;;4.94;83.66;102465.66;4988669;28;20000;-71
2023/04/08 01:47:57;;;;;;;;;;;;;;;4.97;83.64;102465.28;5018110;28;20491;-72
2023/04/08 01:50:23;;;;;;;;;;;;;;;4.89;83.43;102460.13;4986010;28;19983;-71
2023/04/08 01:52:52;;;;;;;;;;;;;;;4.88;83.66;102461.97;5004593;28;19959;-74
2023/04/08 01:55:18;;;;;;;;;;;;;;;4.93;83.62;102464.84;4999212;28;19983;-73
2023/04/08 01:57:50;;;;;;;;;;;;;;;4.90;84.00;102459.09;5004057;28;20297;-71
2023/04/08 02:00:18;;;;;;;;;;;;;;;4.83;83.88;102458.22;4972037;28;20029;-72
2023/04/08 02:02:47;;;;;;;;;;;;;;;4.90;83.92;102454.63;4998665;28;19955;-72
2023/04/08 02:05:13;;;;;;;;;;;;;;;4.96;83.38;102446.91;4981888;28;19949;-71
2023/04/08 02:07:39;;;;;;;;;;;;;;;4.93;83.35;102448.09;4997424;28;20322;-71
2023/04/08 02:10:07;;;;;;;;;;;;;;;4.95;83.10;102450.59;5001910;28;19941;-72
2023/04/08 02:12:33;;;;;;;;;;;;;;;4.88;83.58;102454.00;5001905;28;19953;-70
2023/04/08 02:14:59;;;;;;;;;;;;;;;4.86;83.81;102447.22;5002813;28;20409;-73
2023/04/08 02:17:34;;;;;;;;;;;;;;;4.80;83.84;102443.47;4967646;28;19938;-71
2023/04/08 02:20:06;;;;;;;;;;;;;;;4.80;84.14;102443.47;5004464;28;19941;-72
2023/04/08 02:22:36;;;;;;;;;;;;;;;4.86;83.83;102441.91;5016416;28;19950;-70
2023/04/08 02:25:03;;;;;;;;;;;;;;;4.91;83.80;102450.13;5000368;28;19962;-72
2023/04/08 02:27:32;;;;;;;;;;;;;;;4.91;83.65;102445.63;4994380;28;19941;-73
2023/04/08 02:29:59;;;;;;;;;;;;;;;4.80;83.83;102442.66;5004352;28;19968;-71
2023/04/08 02:32:25;;;;;;;;;;;;;;;4.83;83.37;102450.25;5002629;28;19950;-71
2023/04/08 02:34:51;;;;;;;;;;;;;;;4.85;83.69;102453.53;5004705;28;20314;-71
2023/04/08 02:37:16;;;;;;;;;;;;;;;4.83;83.46;102461.69;4981468;28;19995;-72
2023/04/08 02:39:42;;;;;;;;;;;;;;;4.84;83.19;102462.50;4991023;28;19942;-72
2023/04/08 02:42:09;;;;;;;;;;;;;;;4.99;83.12;102463.25;5003213;28;20037;-71
2023/04/08 02:44:35;;;;;;;;;;;;;;;4.93;82.85;102462.19;5001285;28;20051;-71
2023/04/08 02:47:02;;;;;;;;;;;;;;;4.85;83.15;102459.66;5022439;28;20401;-73
2023/04/08 02:49:33;;;;;;;;;;;;;;;4.88;83.08;102461.97;5002216;28;19962;-72
2023/04/08 02:52:02;;;;;;;;;;;;;;;4.95;82.92;102461.19;5022975;28;19949;-71
2023/04/08 02:54:28;;;;;;;;;;;;;;;4.90;82.79;102470.53;5004233;28;19940;-71
2023/04/08 02:56:53;;;;;;;;;;;;;;;4.83;83.05;102464.34;4988431;28;19995;-73
2023/04/08 02:59:19;;;;;;;;;;;;;;;4.86;83.18;102455.19;5002698;28;20406;-74
2023/04/08 03:01:44;;;;;;;;;;;;;;;4.84;83.13;102462.50;4986750;28;19985;-73
2023/04/08 03:04:10;;;;;;;;;;;;;;;4.88;82.60;102463.78;5001654;28;19956;-71
2023/04/08 03:06:35;;;;;;;;;;;;;;;4.87;82.64;102470.91;5001566;28;19937;-72
2023/04/08 03:09:01;;;;;;;;;;;;;;;4.83;83.01;102472.31;4998348;28;19980;-74
2023/04/08 03:11:26;;;;;;;;;;;;;;;4.84;82.76;102471.28;5015151;28;19934;-73
2023/04/08 03:13:52;;;;;;;;;;;;;;;4.79;83.06;102467.56;4996215;28;19971;-72
2023/04/08 03:16:18;;;;;;;;;;;;;;;4.79;82.96;102470.22;4998799;28;19937;-70
2023/04/08 03:18:43;;;;;;;;;;;;;;;4.86;83.06;102471.09;5001006;28;19944;-70
2023/04/08 03:21:09;;;;;;;;;;;;;;;4.80;83.01;102469.19;4987302;28;20287;-73
2023/04/08 03:23:35;;;;;;;;;;;;;;;4.71;83.69;102478.31;4999274;28;20422;-70
2023/04/08 03:26:00;;;;;;;;;;;;;;;4.68;83.30;102476.03;5003300;28;19979;-72
2023/04/08 03:28:26;;;;;;;;;;;;;;;4.79;83.05;102484.31;4979932;28;20322;-72
2023/04/08 03:30:53;;;;;;;;;;;;;;;4.71;83.36;102480.97;5000775;28;19982;-72
2023/04/08 03:33:18;;;;;;;;;;;;;;;4.77;83.15;102489.00;5000020;28;19952;-71
2023/04/08 03:35:46;;;;;;;;;;;;;;;4.64;83.24;102487.00;5000080;28;19938;-70
2023/04/08 03:38:12;;;;;;;;;;;;;;;4.75;83.01;102483.06;4999704;28;19958;-71
2023/04/08 03:40:37;;;;;;;;;;;;;;;4.75;83.38;102492.84;5006347;28;19939;-72
2023/04/08 03:43:05;;;;;;;;;;;;;;;4.68;83.98;102497.28;4983247;28;20334;-71
2023/04/08 03:45:32;;;;;;;;;;;;;;;4.75;83.66;102495.50;4994479;28;19940;-72
2023/04/08 03:47:57;;;;;;;;;;;;;;;4.69;83.71;102501.56;5001118;28;20034;-72
2023/04/08 03:50:23;;;;;;;;;;;;;;;4.67;84.10;102491.13;5001645;28;20009;-73
2023/04/08 03:52:48;;;;;;;;;;;;;;;4.61;84.14;102492.72;4999219;28;19973;-69
2023/04/08 03:55:14;;;;;;;;;;;;;;;4.65;84.30;102495.78;4994055;28;19967;-72
2023/04/08 03:57:39;;;;;;;;;;;;;;;4.59;84.37;102500.00;4998500;28;19937;-74
2023/04/08 04:00:05;;;;;;;;;;;;;;;4.62;84.85;102498.84;4997347;28;20321;-72
2023/04/08 04:02:37;;;;;;;;;;;;;;;4.58;84.97;102493.06;5009951;28;19962;-70
2023/04/08 04:05:03;;;;;;;;;;;;;;;4.61;84.52;102503.31;4997261;28;19964;-71
2023/04/08 04:07:29;;;;;;;;;;;;;;;4.61;84.62;102498.03;5017191;28;19939;-71
2023/04/08 04:09:55;;;;;;;;;;;;;;;4.54;85.00;102518.34;4999087;28;19936;-71
2023/04/08 04:12:21;;;;;;;;;;;;;;;4.68;84.57;102507.88;4998696;28;19957;-72
2023/04/08 04:14:47;;;;;;;;;;;;;;;4.62;84.73;102504.97;4997959;28;19946;-70
2023/04/08 04:17:13;;;;;;;;;;;;;;;4.60;84.54;102508.78;4999090;28;19938;-73
2023/04/08 04:19:38;;;;;;;;;;;;;;;4.60;84.90;102512.28;4972783;28;19933;-73
2023/04/08 04:22:04;;;;;;;;;;;;;;;4.60;84.68;102512.28;4999902;28;19950;-70
2023/04/08 04:24:30;;;;;;;;;;;;;;;4.55;85.09;102511.22;5001969;28;20062;-73
2023/04/08 04:26:55;;;;;;;;;;;;;;;4.57;85.14;102515.31;5003433;28;19941;-70
2023/04/08 04:29:21;;;;;;;;;;;;;;;4.49;85.31;102515.41;5012687;28;20123;-73
2023/04/08 04:31:46;;;;;;;;;;;;;;;4.57;85.13;102515.31;5001969;28;19939;-71
2023/04/08 04:34:12;;;;;;;;;;;;;;;4.55;85.63;102521.81;5004978;28;19936;-71
2023/04/08 04:36:43;;;;;;;;;;;;;;;4.57;84.84;102527.75;5009121;28;19963;-71
2023/04/08 04:39:09;;;;;;;;;;;;;;;4.53;85.50;102532.59;5001740;28;19938;-72
2023/04/08 04:41:39;;;;;;;;;;;;;;;4.58;85.55;102535.53;4999462;28;19949;-71
2023/04/08 04:44:05;;;;;;;;;;;;;;;4.63;84.85;102537.63;5003715;28;20456;-74
2023/04/08 04:46:30;;;;;;;;;;;;;;;4.55;85.50;102535.91;5000368;28;19937;-73
2023/04/08 04:48:57;;;;;;;;;;;;;;;4.56;85.56;102542.84;4985600;28;19929;-71
2023/04/08 04:51:23;;;;;;;;;;;;;;;4.52;85.94;102541.56;4999226;28;19938;-73
2023/04/08 04:53:49;;;;;;;;;;;;;;;4.48;85.94;102545.63;5019417;28;20017;-75
2023/04/08 04:56:14;;;;;;;;;;;;;;;4.64;85.24;102547.22;5002370;28;19930;-71
2023/04/08 04:58:41;;;;;;;;;;;;;;;4.55;85.67;102551.00;5016948;28;19949;-72
2023/04/08 05:01:06;;;;;;;;;;;;;;;4.56;85.41;102550.00;5001652;28;19932;-72
2023/04/08 05:03:31;;;;;;;;;;;;;;;4.51;85.80;102552.38;4998467;28;19957;-72
2023/04/08 05:05:57;;;;;;;;;;;;;;;4.59;85.84;102547.78;4981446;28;19965;-71
2023/04/08 05:08:22;;;;;;;;;;;;;;;4.62;85.24;102552.72;4996568;28;19937;-74
2023/04/08 05:10:51;;;;;;;;;;;;;;;4.67;85.47;102549.50;5003114;28;19940;-71
2023/04/08 05:13:17;;;;;;;;;;;;;;;4.57;85.88;102549.81;4999842;28;19997;-73
2023/04/08 05:15:44;;;;;;;;;;;;;;;4.70;85.28;102543.00;4998663;28;19938;-73
2023/04/08 05:18:13;;;;;;;;;;;;;;;4.62;85.28;102555.38;5004945;28;19936;-73
2023/04/08 05:20:39;;;;;;;;;;;;;;;4.63;85.58;102548.25;4999264;28;20039;-72
2023/04/08 05:23:04;;;;;;;;;;;;;;;4.63;86.07;102554.38;5001757;28;19959;-71
2023/04/08 05:25:30;;;;;;;;;;;;;;;4.62;86.05;102563.34;4999722;28;20239;-73
2023/04/08 05:27:56;;;;;;;;;;;;;;;4.61;85.97;102563.53;5001422;28;20006;-73
2023/04/08 05:30:21;;;;;;;;;;;;;;;4.61;86.07;102569.66;5002925;28;20029;-71
2023/04/08 05:32:47;;;;;;;;;;;;;;;4.56;86.42;102563.25;4995649;28;20031;-73
2023/04/08 05:35:12;;;;;;;;;;;;;;;4.58;86.22;102572.66;5018827;28;19934;-71
2023/04/08 05:37:38;;;;;;;;;;;;;;;4.68;86.03;102580.38;4969050;28;19944;-73
2023/04/08 05:40:04;;;;;;;;;;;;;;;4.61;86.05;102582.13;5009783;28;19980;-70
2023/04/08 05:42:30;;;;;;;;;;;;;;;4.68;85.69;102583.03;5004051;28;20055;-72
2023/04/08 05:44:56;;;;;;;;;;;;;;;4.74;85.31;102584.09;4971187;28;19980;-71
2023/04/08 05:47:21;;;;;;;;;;;;;;;4.60;85.59;102581.25;4994444;28;19987;-73
2023/04/08 05:49:47;;;;;;;;;;;;;;;4.60;85.55;102581.25;4966636;28;19981;-71
2023/04/08 05:52:12;;;;;;;;;;;;;;;4.64;85.01;102589.69;4983069;28;19956;-72
2023/04/08 05:54:41;;;;;;;;;;;;;;;4.70;85.25;102582.81;5004464;28;20435;-73
2023/04/08 05:57:06;;;;;;;;;;;;;;;4.72;85.20;102594.06;4984430;28;20867;-71
2023/04/08 05:59:32;;;;;;;;;;;;;;;4.70;85.24;102585.47;4994051;28;19950;-72
2023/04/08 06:01:57;;;;;;;;;;;;;;;4.70;85.28;102590.78;5012501;28;19959;-74
2023/04/08 06:04:23;;;;;;;;;;;;;;;4.82;85.10;102584.00;5000525;28;20031;-72
2023/04/08 06:06:49;;;;;;;;;;;;;;;4.74;85.02;102589.38;4984576;28;19938;-73
2023/04/08 06:09:17;;;;;;;;;;;;;;;4.75;85.43;102596.38;5004285;28;19937;-73
2023/04/08 06:11:42;;;;;;;;;;;;;;;4.81;85.42;102592.94;4985826;28;20043;-72
2023/04/08 06:14:08;;;;;;;;;;;;;;;4.83;84.94;102601.56;5002067;28;20021;-72
2023/04/08 06:16:33;;;;;;;;;;;;;;;4.97;85.18;102598.06;5018196;28;20815;-73
2023/04/08 06:18:59;;;;;;;;;;;;;;;4.91;84.96;102606.75;4999352;28;19981;-70
2023/04/08 06:21:25;;;;;;;;;;;;;;;4.90;85.05;102610.44;5016867;28;19937;-72
2023/04/08 06:23:50;;;;;;;;;;;;;;;4.89;85.41;102608.78;4999927;28;19969;-73
2023/04/08 06:26:16;;;;;;;;;;;;;;;4.80;85.31;102609.88;4996426;28;19937;-74
2023/04/08 06:28:42;;;;;;;;;;;;;;;4.87;85.27;102605.47;4984470;28;20889;-72
2023/04/08 06:31:07;;;;;;;;;;;;;;;4.94;84.89;102609.03;4986458;28;19979;-72
2023/04/08 06:33:33;;;;;;;;;;;;;;;4.94;85.27;102619.66;4995220;28;19948;-70
2023/04/08 06:36:06;;;;;;;;;;;;;;;4.96;85.29;102625.63;4998944;28;19977;-71
2023/04/08 06:38:31;;;;;;;;;;;;;;;4.77;85.47;102623.53;5012690;28;19938;-72
2023/04/08 06:41:04;;;;;;;;;;;;;;;4.80;85.44;102623.16;4984072;28;19940;-70
2023/04/08 06:43:30;;;;;;;;;;;;;;;4.79;85.83;102619.69;5012044;28;19984;-71
2023/04/08 06:45:55;;;;;;;;;;;;;;;4.82;85.59;102629.94;4988039;28;20397;-71
2023/04/08 06:48:22;;;;;;;;;;;;;;;4.78;85.47;102628.66;5015341;28;19932;-71
2023/04/08 06:50:48;;;;;;;;;;;;;;;4.83;85.43;102622.81;4968832;28;19942;-69
2023/04/08 06:53:13;;;;;;;;;;;;;;;4.84;85.52;102635.06;4993103;28;20006;-71
2023/04/08 06:55:39;;;;;;;;;;;;;;;4.97;84.95;102632.56;5002924;28;19934;-72
2023/04/08 06:58:05;;;;;;;;;;;;;;;4.97;85.14;102640.53;4986317;28;19934;-73
2023/04/08 07:00:31;;;;;;;;;;;;;;;5.09;84.71;102639.06;5002152;28;19943;-73
2023/04/08 07:02:56;;;;;;;;;;;;;;;5.16;83.93;102637.31;4996471;28;19950;-70
2023/04/08 07:05:22;;;;;;;;;;;;;;;5.33;83.98;102645.84;4987370;28;19946;-69
2023/04/08 07:07:47;;;;;;;;;;;;;;;5.16;84.04;102644.44;5004586;28;19975;-70
2023/04/08 07:10:12;;;;;;;;;;;;;;;5.36;83.54;102637.53;4983705;28;19939;-71
2023/04/08 07:12:38;;;;;;;;;;;;;;;5.38;83.30;102643.47;4999212;28;19960;-70
2023/04/08 07:15:04;;;;;;;;;;;;;;;5.19;83.66;102639.56;5003458;28;19938;-70
2023/04/08 07:17:29;;;;;;;;;;;;;;;5.16;83.78;102645.28;5013040;28;20764;-73
2023/04/08 07:19:55;;;;;;;;;;;;;;;5.07;83.99;102646.38;5000561;28;19942;-73
2023/04/08 07:22:21;;;;;;;;;;;;;;;5.34;82.55;102647.50;4996384;28;19951;-72
2023/04/08 07:24:48;;;;;;;;;;;;;;;5.28;82.93;102645.59;4995041;28;19958;-72
2023/04/08 07:27:15;;;;;;;;;;;;;;;5.46;82.54;102650.47;4977529;28;20310;-70
2023/04/08 07:29:40;;;;;;;;;;;;;;;5.35;82.84;102650.97;5003633;28;19946;-71
2023/04/08 07:32:08;;;;;;;;;;;;;;;5.51;82.65;102652.59;5000135;28;19944;-70
2023/04/08 07:34:35;;;;;;;;;;;;;;;5.78;82.53;102649.16;5001755;28;19960;-73
2023/04/08 07:37:00;;;;;;;;;;;;;;;5.70;81.95;102658.09;4999801;28;19932;-70
2023/04/08 07:39:27;;;;;;;;;;;;;;;5.77;81.17;102654.69;4999684;28;19937;-72
2023/04/08 07:41:52;;;;;;;;;;;;;;;5.59;81.71;102658.59;4972294;28;19958;-71
2023/04/08 07:44:18;;;;;;;;;;;;;;;5.66;81.72;102662.13;5015375;28;19958;-73
2023/04/08 07:46:50;;;;;;;;;;;;;;;5.61;81.89;102666.38;5008468;28;19938;-70
2023/04/08 07:49:15;;;;;;;;;;;;;;;5.46;82.29;102672.56;5001052;28;19936;-73
2023/04/08 07:51:41;;;;;;;;;;;;;;;5.52;82.40;102680.81;5015809;28;20347;-71
2023/04/08 07:54:06;;;;;;;;;;;;;;;5.53;82.20;102685.91;5022040;28;19936;-73
2023/04/08 07:56:32;;;;;;;;;;;;;;;5.60;81.83;102678.84;4988072;28;19938;-72
2023/04/08 07:58:58;;;;;;;;;;;;;;;5.56;81.10;102688.22;4979156;28;20326;-73
2023/04/08 08:01:23;;;;;;;;;;;;;;;5.39;81.15;102682.31;5004025;28;19931;-72
2023/04/08 08:03:49;;;;;;;;;;;;;;;5.53;81.01;102691.25;4986739;28;20437;-73
2023/04/08 08:06:15;;;;;;;;;;;;;;;5.56;81.58;102693.53;5004436;28;19963;-72
2023/04/08 08:08:41;;;;;;;;;;;;;;;5.57;81.21;102697.84;5007758;28;19936;-72
2023/04/08 08:11:06;;;;;;;;;;;;;;;5.57;81.72;102697.00;5007951;28;19953;-72
2023/04/08 08:13:32;;;;;;;;;;;;;;;5.51;82.00;102692.44;5009323;28;19957;-71
2023/04/08 08:15:58;;;;;;;;;;;;;;;5.82;81.02;102692.13;5005144;28;20050;-73
2023/04/08 08:18:23;;;;;;;;;;;;;;;5.81;80.61;102691.31;5019949;28;20307;-72
2023/04/08 08:20:49;;;;;;;;;;;;;;;5.65;81.09;102684.41;4993012;28;19940;-71
2023/04/08 08:23:15;;;;;;;;;;;;;;;5.71;81.11;102699.63;4985132;28;19964;-72
2023/04/08 08:25:40;;;;;;;;;;;;;;;5.62;81.34;102698.09;5022411;28;20113;-71
2023/04/08 08:28:06;;;;;;;;;;;;;;;5.63;80.96;102694.44;4999148;28;19931;-72
2023/04/08 08:30:32;;;;;;;;;;;;;;;5.75;81.14;102698.19;5025909;28;19937;-72
2023/04/08 08:33:00;;;;;;;;;;;;;;;5.70;80.76;102705.94;5000737;28;19967;-71
2023/04/08 08:35:26;;;;;;;;;;;;;;;5.73;81.25;102696.75;4995551;28;19935;-72
2023/04/08 08:37:52;;;;;;;;;;;;;;;5.65;81.75;102707.53;4997100;28;19942;-72
2023/04/08 08:40:17;;;;;;;;;;;;;;;5.48;81.93;102706.91;5002153;28;19928;-70
2023/04/08 08:42:51;;;;;;;;;;;;;;;5.36;82.43;102703.13;4978282;28;19987;-73
2023/04/08 08:45:18;;;;;;;;;;;;;;;5.53;81.84;102707.19;5010067;28;19951;-73
2023/04/08 08:47:44;;;;;;;;;;;;;;;5.40;81.92;102715.81;5007633;28;20027;-73
2023/04/08 08:50:09;;;;;;;;;;;;;;;5.48;82.27;102715.72;5007322;28;20031;-74
2023/04/08 08:52:35;;;;;;;;;;;;;;;5.68;81.39;102717.75;4998283;28;20095;-74
2023/04/08 08:55:01;;;;;;;;;;;;;;;5.63;81.27;102715.69;4989057;28;19948;-71
2023/04/08 08:57:26;;;;;;;;;;;;;;;5.68;81.32;102712.44;5007197;28;19935;-74
2023/04/08 08:59:52;;;;;;;;;;;;;;;5.88;80.88;102715.31;5005238;28;20621;-72
2023/04/08 09:02:25;;;;;;;;;;;;;;;6.09;79.49;102715.31;5005394;28;19955;-71
2023/04/08 09:04:57;;;;;;;;;;;;;;;6.01;79.73;102720.78;5019495;28;20488;-71
2023/04/08 09:07:24;;;;;;;;;;;;;;;6.09;79.97;102723.31;4982221;28;19939;-75
2023/04/08 09:09:51;;;;;;;;;;;;;;;5.86;80.29;102730.63;5002807;28;19933;-71
2023/04/08 09:12:17;;;;;;;;;;;;;;;5.89;80.62;102725.78;4988653;28;20003;-73
2023/04/08 09:14:42;;;;;;;;;;;;;;;5.88;80.33;102731.25;5004798;28;20654;-74
2023/04/08 09:17:09;;;;;;;;;;;;;;;6.15;79.60;102738.50;5003350;28;19935;-71
2023/04/08 09:19:35;;;;;;;;;;;;;;;6.11;79.93;102739.91;4985284;28;19976;-72
2023/04/08 09:22:05;;;;;;;;;;;;;;;5.85;80.12;102737.78;4986931;28;19954;-71
2023/04/08 09:24:31;;;;;;;;;;;;;;;5.71;81.15;102739.50;4996489;28;19957;-72
2023/04/08 09:26:57;;;;;;;;;;;;;;;5.99;79.94;102736.13;5006198;28;20477;-73
2023/04/08 09:29:23;;;;;;;;;;;;;;;5.96;80.62;102747.13;5016077;28;20055;-73
2023/04/08 09:31:52;;;;;;;;;;;;;;;6.23;79.59;102741.06;5003932;28;19932;-73
2023/04/08 09:34:19;;;;;;;;;;;;;;;6.38;79.10;102740.97;4982990;28;20420;-72
2023/04/08 09:36:45;;;;;;;;;;;;;;;6.51;78.70;102740.25;5007617;28;19939;-70
2023/04/08 09:39:10;;;;;;;;;;;;;;;6.42;78.89;102746.72;5002535;28;19932;-70
2023/04/08 09:41:37;;;;;;;;;;;;;;;6.59;78.73;102747.25;5003614;28;19987;-73
2023/04/08 09:44:03;;;;;;;;;;;;;;;6.60;78.87;102754.22;4998747;28;19957;-73
2023/04/08 09:46:39;;;;;;;;;;;;;;;6.55;78.23;102744.97;4978266;28;20046;-74
2023/04/08 09:49:06;;;;;;;;;;;;;;;6.68;78.00;102754.91;5018416;28;19936;-71
2023/04/08 09:51:39;;;;;;;;;;;;;;;6.61;78.09;102751.38;5003858;28;19932;-70
2023/04/08 09:54:09;;;;;;;;;;;;;;;6.61;78.97;102750.53;5001166;28;19938;-72
2023/04/08 09:56:40;;;;;;;;;;;;;;;6.49;78.67;102758.22;5001817;28;19973;-72
2023/04/08 09:59:12;;;;;;;;;;;;;;;6.68;78.83;102756.75;4999822;28;19940;-72
2023/04/08 10:01:38;;;;;;;;;;;;;;;6.64;78.18;102751.00;5019119;28;19922;-70
2023/04/08 10:04:07;;;;;;;;;;;;;;;6.55;78.67;102754.78;5000509;28;19961;-73
2023/04/08 10:06:33;;;;;;;;;;;;;;;6.43;79.38;102753.69;4983907;28;20433;-72
2023/04/08 10:09:00;;;;;;;;;;;;;;;6.76;78.60;102752.06;4998747;28;19937;-69
2023/04/08 10:11:26;;;;;;;;;;;;;;;6.75;78.31;102746.94;4983272;28;19938;-72
2023/04/08 10:13:52;;;;;;;;;;;;;;;6.79;78.26;102756.22;4998397;28;20023;-72
2023/04/08 10:16:24;;;;;;;;;;;;;;;6.59;78.05;102757.91;5015544;28;20408;-70
2023/04/08 10:18:54;;;;;;;;;;;;;;;6.56;78.91;102751.13;4996736;28;19933;-73
2023/04/08 10:21:32;;;;;;;;;;;;;;;6.70;78.38;102755.50;4979732;28;19933;-72
2023/04/08 10:23:59;;;;;;;;;;;;;;;6.42;79.09;102746.72;4998718;28;19961;-72
2023/04/08 10:26:35;;;;;;;;;;;;;;;6.48;79.19;102757.41;4982948;28;20300;-69
2023/04/08 10:29:16;;;;;;;;;;;;;;;6.70;78.61;102752.84;4996901;28;19935;-70
2023/04/08 10:31:42;;;;;;;;;;;;;;;6.80;78.44;102760.50;4999072;28;20412;-71
2023/04/08 10:34:16;;;;;;;;;;;;;;;6.61;79.08;102761.19;5000150;28;19936;-72
2023/04/08 10:36:42;;;;;;;;;;;;;;;6.51;79.24;102751.72;4993180;28;19967;-70
2023/04/08 10:39:08;;;;;;;;;;;;;;;6.50;79.12;102754.53;4984134;28;19970;-73
2023/04/08 10:41:33;;;;;;;;;;;;;;;6.57;78.92;102756.28;4999699;28;19936;-72
2023/04/08 10:44:02;;;;;;;;;;;;;;;6.52;79.42;102757.88;4994842;28;19968;-71
2023/04/08 10:46:27;;;;;;;;;;;;;;;6.55;79.05;102757.47;4985318;28;19986;-71
2023/04/08 10:49:00;;;;;;;;;;;;;;;6.78;78.31;102752.72;4998844;28;19939;-71
2023/04/08 10:51:30;;;;;;;;;;;;;;;6.79;78.43;102759.69;4998796;28;19979;-70
2023/04/08 10:54:04;;;;;;;;;;;;;;;6.83;78.07;102760.94;4994634;28;19946;-70
2023/04/08 10:56:29;;;;;;;;;;;;;;;6.66;78.24;102756.94;4992664;28;20012;-71
2023/04/08 10:58:55;;;;;;;;;;;;;;;6.81;78.30;102757.66;4982337;28;20030;-72
2023/04/08 11:01:21;;;;;;;;;;;;;;;6.89;78.03;102758.50;4999646;28;19944;-73
2023/04/08 11:03:47;;;;;;;;;;;;;;;7.00;77.25;102760.63;5018371;28;19962;-72
2023/04/08 11:06:12;;;;;;;;;;;;;;;6.68;78.09;102762.88;4977981;28;19957;-74
2023/04/08 11:08:38;;;;;;;;;;;;;;;6.91;78.31;102762.66;4979918;28;19950;-73
2023/04/08 11:11:10;;;;;;;;;;;;;;;6.83;77.79;102771.59;4995021;28;20678;-72
2023/04/08 11:13:36;;;;;;;;;;;;;;;7.09;77.35;102770.09;5002235;28;19963;-70
2023/04/08 11:16:03;;;;;;;;;;;;;;;6.77;78.13;102767.06;4997152;28;19946;-70
2023/04/08 11:18:33;;;;;;;;;;;;;;;6.55;77.90;102768.09;5012963;28;19941;-72
2023/04/08 11:20:59;;;;;;;;;;;;;;;6.66;77.74;102770.25;4994910;28;19941;-70
2023/04/08 11:23:25;;;;;;;;;;;;;;;6.59;77.95;102758.72;4979293;28;20070;-72
2023/04/08 11:25:51;;;;;;;;;;;;;;;6.60;78.16;102764.88;4994873;28;20387;-71
2023/04/08 11:28:17;;;;;;;;;;;;;;;6.56;78.17;102762.59;4996650;28;20034;-71
2023/04/08 11:30:43;;;;;;;;;;;;;;;6.62;78.00;102763.66;4997987;28;20399;-73
2023/04/08 11:33:09;;;;;;;;;;;;;;;6.67;77.87;102763.09;4994142;28;19954;-73
2023/04/08 11:35:38;;;;;;;;;;;;;;;6.77;77.78;102764.41;4995664;28;20015;-71
2023/04/08 11:38:04;;;;;;;;;;;;;;;6.77;77.74;102760.88;4963821;28;20051;-69
2023/04/08 11:40:29;;;;;;;;;;;;;;;7.17;76.54;102761.13;4994914;28;20528;-70
2023/04/08 11:42:55;;;;;;;;;;;;;;;7.11;76.84;102752.06;4999911;28;19957;-72
2023/04/08 11:45:20;;;;;;;;;;;;;;;7.26;76.04;102760.78;4988350;28;19962;-71
2023/04/08 11:47:47;;;;;;;;;;;;;;;7.24;76.23;102759.31;4997527;28;20039;-72
2023/04/08 11:50:21;;;;;;;;;;;;;;;7.17;76.16;102764.59;4999390;28;19941;-73
2023/04/08 11:52:48;;;;;;;;;;;;;;;7.16;75.91;102765.63;5015065;28;20419;-72
2023/04/08 11:55:24;;;;;;;;;;;;;;;7.13;76.28;102763.38;4997357;28;19938;-72
2023/04/08 11:57:50;;;;;;;;;;;;;;;7.14;76.06;102765.00;5000794;28;20335;-72
2023/04/08 12:00:16;;;;;;;;;;;;;;;7.20;76.72;102761.56;4998905;28;19945;-72
2023/04/08 12:02:42;;;;;;;;;;;;;;;7.45;75.40;102764.56;4995073;28;19975;-73
2023/04/08 12:05:07;;;;;;;;;;;;;;;7.24;76.35;102762.78;4986273;28;19958;-71
2023/04/08 12:07:33;;;;;;;;;;;;;;;6.98;77.13;102773.34;5010607;28;19928;-71
2023/04/08 12:09:58;;;;;;;;;;;;;;;7.16;76.62;102778.94;4997288;28;20345;-70
2023/04/08 12:12:24;;;;;;;;;;;;;;;7.29;75.92;102773.69;4984322;28;20322;-71
2023/04/08 12:14:52;;;;;;;;;;;;;;;7.54;75.25;102762.53;4985946;28;19949;-71
2023/04/08 12:17:17;;;;;;;;;;;;;;;7.46;75.89;102770.72;4998430;28;19935;-70
2023/04/08 12:19:43;;;;;;;;;;;;;;;7.14;76.82;102775.66;4994810;28;19950;-72
2023/04/08 12:22:08;;;;;;;;;;;;;;;7.54;75.04;102781.19;5009342;28;20366;-69
2023/04/08 12:24:34;;;;;;;;;;;;;;;7.35;76.24;102775.56;5006155;28;19968;-71
2023/04/08 12:27:01;;;;;;;;;;;;;;;7.24;76.57;102784.13;4999158;28;19937;-71
2023/04/08 12:29:26;;;;;;;;;;;;;;;7.44;75.36;102784.22;4968782;28;19942;-73
2023/04/08 12:31:52;;;;;;;;;;;;;;;7.20;76.29;102782.88;5003462;28;20337;-71
2023/04/08 12:34:19;;;;;;;;;;;;;;;7.26;76.52;102781.28;4996135;28;19962;-73
2023/04/08 12:36:44;;;;;;;;;;;;;;;7.28;76.07;102781.91;5000413;28;20047;-72
2023/04/08 12:39:10;;;;;;;;;;;;;;;7.43;75.82;102781.75;4999520;28;19950;-70
2023/04/08 12:41:36;;;;;;;;;;;;;;;7.36;76.35;102776.38;4999518;28;19942;-71
2023/04/08 12:44:01;;;;;;;;;;;;;;;7.23;76.59;102786.97;5016536;28;19957;-72
2023/04/08 12:46:27;;;;;;;;;;;;;;;7.11;77.00;102778.72;5003999;28;19956;-73